KFSM/FSM METAR and TAF weather

Enter ICAO airport designator
Station Type Date Time Source
KFSM METAR 2021/09/23 17:53 UTC NOAA

KFSM 231753Z VRB06KT 10SM CLR 25/06 A3013 RMK AO2 SLP201 T02500061 10250 20089 58013


Station Type Date Time Source
KFSM Decoded METAR 2021/09/23 17:53 UTC NOAA

FORT SMITH REGIONAL AIRPORT, AR, United States (KFSM) 35-20N 94-22W 140M
Sep 23, 2021 - 01:53 PM EDT / 2021.09.23 1753 UTC
Wind: Variable at 7 MPH (6 KT):0
Visibility: 10 mile(s):0
Sky conditions: clear
Temperature: 77.0 F (25.0 C)
Dew Point: 43.0 F (6.1 C)
Relative Humidity: 29%
Pressure (altimeter): 30.13 in. Hg (1020 hPa)
Pressure tendency: 0.04 inches (1.3 hPa) lower than three hours ago
ob: KFSM 231753Z VRB06KT 10SM CLR 25/06 A3013 RMK AO2 SLP201 T02500061 10250 20089 58013
cycle: 18

Station Type Date Time Source
KFSM TAF 2021/09/23 18:24 UTC NOAA

TAF KFSM 231721Z 2318/2418 26004KT P6SM SKC
FM240000 VRB03KT P6SM SKC
FM241500 08005KT P6SM SCT250

Example: see airport list